createdAt,value
2019-01-17T00:05:25.406Z,6.70
2019-01-17T00:08:25.799Z,6.70
2019-01-17T00:11:27.328Z,6.70
2019-01-17T00:14:12.643Z,6.70
2019-01-17T00:19:51.463Z,6.70
2019-01-17T00:25:40.676Z,6.60
2019-01-17T00:31:30.064Z,6.60
2019-01-17T00:34:12.823Z,6.50
2019-01-17T00:36:55.379Z,6.50
2019-01-17T00:39:37.947Z,6.50
2019-01-17T00:42:23.443Z,6.50
2019-01-17T00:45:05.330Z,6.50
2019-01-17T00:47:47.148Z,6.60
2019-01-17T00:53:26.103Z,6.70
2019-01-17T00:59:05.248Z,6.60
2019-01-17T01:01:47.620Z,6.60
2019-01-17T01:04:33.012Z,6.50
2019-01-17T01:13:32.312Z,6.60
2019-01-17T01:19:10.559Z,6.60
2019-01-17T01:22:11.414Z,6.60
2019-01-17T01:24:53.787Z,6.50
2019-01-17T01:30:48.249Z,6.50
2019-01-17T01:33:30.860Z,6.50
2019-01-17T01:36:12.592Z,6.40
2019-01-17T01:39:14.016Z,6.40
2019-01-17T01:47:46.503Z,6.50
2019-01-17T01:50:28.876Z,6.50
2019-01-17T01:53:10.016Z,6.50
2019-01-17T01:55:50.592Z,6.50
2019-01-17T01:58:31.247Z,6.60
2019-01-17T02:01:11.879Z,6.60
2019-01-17T02:03:52.609Z,6.50
2019-01-17T02:06:33.456Z,6.50
2019-01-17T02:09:14.064Z,6.50
2019-01-17T02:11:54.817Z,6.50
2019-01-17T02:14:35.596Z,6.50
2019-01-17T02:17:16.327Z,6.50
2019-01-17T02:19:57.135Z,6.50
2019-01-17T02:22:38.180Z,6.50
2019-01-17T02:25:19.031Z,6.60
2019-01-17T02:27:59.465Z,6.60
2019-01-17T02:30:40.296Z,6.60
2019-01-17T02:33:21.185Z,6.60
2019-01-17T02:36:01.593Z,6.60
2019-01-17T02:38:42.332Z,6.70
2019-01-17T02:41:24.008Z,6.70
2019-01-17T02:44:04.580Z,6.70
2019-01-17T02:46:45.330Z,6.70
2019-01-17T02:49:26.188Z,6.70
2019-01-17T02:52:06.427Z,6.70
2019-01-17T02:54:46.832Z,6.70
2019-01-17T02:57:27.744Z,6.70
2019-01-17T03:00:08.777Z,6.80
2019-01-17T03:02:49.224Z,6.70
2019-01-17T03:05:30.393Z,6.70
2019-01-17T03:08:10.849Z,6.70
2019-01-17T03:10:51.913Z,6.60
2019-01-17T03:13:32.735Z,6.60
2019-01-17T03:16:13.455Z,6.60
2019-01-17T03:18:53.947Z,6.50
2019-01-17T03:21:34.688Z,6.50
2019-01-17T03:24:15.135Z,6.50
2019-01-17T03:26:55.809Z,6.50
2019-01-17T03:29:36.394Z,6.50
2019-01-17T03:32:16.965Z,6.50
2019-01-17T03:34:57.551Z,6.50
2019-01-17T03:37:38.240Z,6.50
2019-01-17T03:40:19.077Z,6.50
2019-01-17T03:43:00.041Z,6.50
2019-01-17T03:45:40.495Z,6.50
2019-01-17T03:48:21.033Z,6.60
2019-01-17T03:51:02.374Z,6.60
2019-01-17T03:53:43.361Z,6.60
2019-01-17T03:56:24.438Z,6.60
2019-01-17T03:59:04.970Z,6.60
2019-01-17T04:01:45.734Z,6.60
2019-01-17T04:04:26.445Z,6.60
2019-01-17T04:07:06.788Z,6.60
2019-01-17T04:09:47.272Z,6.60
2019-01-17T04:12:27.584Z,6.60
2019-01-17T04:15:08.135Z,6.60
2019-01-17T04:17:49.056Z,6.60
2019-01-17T04:20:30.388Z,6.50
2019-01-17T04:23:11.352Z,6.60
2019-01-17T04:25:51.732Z,6.50
2019-01-17T04:28:32.417Z,6.50
2019-01-17T04:31:13.156Z,6.50
2019-01-17T04:33:53.812Z,6.50
2019-01-17T04:36:34.699Z,6.40
2019-01-17T04:39:15.353Z,6.50
2019-01-17T04:41:55.969Z,6.40
2019-01-17T04:44:36.464Z,6.40
2019-01-17T04:47:17.443Z,6.40
2019-01-17T04:49:58.279Z,6.40
2019-01-17T04:52:39.253Z,6.40
2019-01-17T04:55:19.608Z,6.50
2019-01-17T04:58:00.319Z,6.40
2019-01-17T05:00:41.112Z,6.40
2019-01-17T05:03:21.586Z,6.50
2019-01-17T05:06:02.348Z,6.50
2019-01-17T05:08:43.216Z,6.50
2019-01-17T05:11:23.916Z,6.50
2019-01-17T05:14:05.007Z,6.50
2019-01-17T05:16:45.680Z,6.40
2019-01-17T05:19:26.579Z,6.40
2019-01-17T05:22:07.342Z,6.50
2019-01-17T05:24:47.792Z,6.50
2019-01-17T05:27:28.605Z,6.40
2019-01-17T05:30:09.508Z,6.50
2019-01-17T05:32:50.056Z,6.50
2019-01-17T05:35:30.701Z,6.50
2019-01-17T05:38:11.369Z,6.50
2019-01-17T05:40:52.169Z,6.50
2019-01-17T05:43:32.784Z,6.50
2019-01-17T05:46:13.252Z,6.50
2019-01-17T05:48:53.926Z,6.50
2019-01-17T05:51:34.631Z,6.50
2019-01-17T05:54:15.135Z,6.50
2019-01-17T05:56:56.251Z,6.50
2019-01-17T05:59:37.347Z,6.50
2019-01-17T06:02:18.440Z,6.60
2019-01-17T06:04:59.231Z,6.60
2019-01-17T06:07:39.628Z,6.60
2019-01-17T06:10:20.568Z,6.60
2019-01-17T06:13:01.377Z,6.60
2019-01-17T06:15:43.458Z,6.60
2019-01-17T06:18:23.912Z,6.60
2019-01-17T06:21:04.955Z,6.60
2019-01-17T06:23:45.428Z,6.60
2019-01-17T06:26:26.587Z,6.60
2019-01-17T06:29:07.311Z,6.60
2019-01-17T06:31:48.128Z,6.60
2019-01-17T06:34:29.188Z,6.60
2019-01-17T06:37:09.928Z,6.60
2019-01-17T06:39:50.580Z,6.60
2019-01-17T06:42:30.971Z,6.60
2019-01-17T06:45:11.817Z,6.70
2019-01-17T06:47:52.698Z,6.70
2019-01-17T06:50:33.404Z,6.70
2019-01-17T06:53:14.511Z,6.70
2019-01-17T06:55:55.179Z,6.70
2019-01-17T06:58:35.949Z,6.70
2019-01-17T07:01:16.560Z,6.80
2019-01-17T07:03:57.596Z,6.80
2019-01-17T07:06:38.187Z,6.80
2019-01-17T07:09:18.828Z,6.90
2019-01-17T07:11:59.489Z,6.90
2019-01-17T07:14:39.997Z,6.90
2019-01-17T07:17:21.084Z,7.00
2019-01-17T07:20:02.408Z,7.00
2019-01-17T07:22:43.020Z,7.00
2019-01-17T07:25:23.820Z,7.00
2019-01-17T07:28:04.279Z,7.00
2019-01-17T07:30:45.100Z,7.10
2019-01-17T07:33:25.916Z,7.20
2019-01-17T07:36:06.168Z,7.20
2019-01-17T07:38:46.827Z,7.20
2019-01-17T07:41:27.632Z,7.20
2019-01-17T07:44:07.816Z,7.20
2019-01-17T07:46:48.804Z,7.00
2019-01-17T07:49:29.414Z,6.90
2019-01-17T07:52:10.072Z,6.90
2019-01-17T07:54:50.695Z,6.80
2019-01-17T07:57:31.835Z,6.70
2019-01-17T08:00:12.332Z,6.70
2019-01-17T08:02:53.117Z,6.60
2019-01-17T08:05:33.716Z,6.60
2019-01-17T08:08:14.423Z,6.60
2019-01-17T08:10:55.692Z,6.60
2019-01-17T08:13:36.207Z,6.60
2019-01-17T08:16:17.317Z,6.60
2019-01-17T08:18:57.843Z,6.60
2019-01-17T08:21:38.688Z,6.60
2019-01-17T08:24:19.036Z,6.60
2019-01-17T08:26:59.940Z,6.60
2019-01-17T08:29:40.676Z,6.60
2019-01-17T08:32:21.496Z,6.70
2019-01-17T08:35:02.336Z,6.80
2019-01-17T08:37:43.215Z,6.80
2019-01-17T08:40:24.071Z,6.80
2019-01-17T08:43:04.748Z,6.80
2019-01-17T08:45:45.195Z,6.80
2019-01-17T08:48:25.956Z,6.80
2019-01-17T08:51:06.584Z,6.90
2019-01-17T08:53:46.792Z,7.00
2019-01-17T08:56:27.512Z,7.10
2019-01-17T08:59:08.635Z,7.20
2019-01-17T09:01:49.575Z,7.30
2019-01-17T09:04:30.227Z,7.30
2019-01-17T09:07:10.968Z,7.20
2019-01-17T09:09:51.341Z,7.20
2019-01-17T09:12:31.999Z,7.10
2019-01-17T09:15:12.648Z,7.20
2019-01-17T09:17:53.180Z,7.30
2019-01-17T09:20:33.588Z,7.30
2019-01-17T09:23:14.964Z,7.30
2019-01-17T09:25:55.392Z,7.40
2019-01-17T09:28:36.184Z,7.50
2019-01-17T09:31:16.734Z,7.60
2019-01-17T09:33:57.433Z,7.70
2019-01-17T09:36:38.019Z,7.80
2019-01-17T09:39:18.177Z,7.90
2019-01-17T09:41:59.020Z,8.00
2019-01-17T09:44:40.149Z,8.30
2019-01-17T09:47:20.803Z,9.60
2019-01-17T09:50:01.427Z,10.10
2019-01-17T09:52:42.181Z,10.40
2019-01-17T09:55:22.823Z,10.60
2019-01-17T09:58:03.056Z,10.90
2019-01-17T10:00:43.635Z,11.70
2019-01-17T10:03:24.227Z,12.60
2019-01-17T10:06:05.428Z,15.10
2019-01-17T10:08:46.004Z,16.30
2019-01-17T10:11:26.271Z,16.00
2019-01-17T10:14:06.763Z,15.30
2019-01-17T10:16:47.420Z,14.50
2019-01-17T10:19:28.498Z,14.20
2019-01-17T10:22:08.877Z,15.10
2019-01-17T10:24:49.940Z,14.40
2019-01-17T10:27:30.480Z,13.60
2019-01-17T10:30:11.000Z,12.50
2019-01-17T10:32:51.847Z,12.40
2019-01-17T10:35:32.587Z,12.30
2019-01-17T10:38:13.739Z,12.10
2019-01-17T10:40:54.341Z,13.30
2019-01-17T10:43:34.819Z,15.50
2019-01-17T10:46:15.608Z,17.20
2019-01-17T10:48:56.132Z,18.30
2019-01-17T10:51:37.083Z,19.40
2019-01-17T10:54:17.564Z,20.50
2019-01-17T10:56:58.099Z,21.00
2019-01-17T10:59:38.572Z,21.10
2019-01-17T11:02:19.704Z,20.70
2019-01-17T11:05:00.708Z,20.60
2019-01-17T11:07:41.604Z,19.70
2019-01-17T11:10:22.478Z,20.10
2019-01-17T11:13:03.706Z,19.90
2019-01-17T11:15:44.068Z,20.00
2019-01-17T11:18:25.067Z,19.70
2019-01-17T11:21:06.196Z,17.10
2019-01-17T11:23:46.700Z,15.20
2019-01-17T11:26:27.332Z,13.80
2019-01-17T11:29:07.709Z,13.90
2019-01-17T11:31:48.438Z,14.70
2019-01-17T11:34:28.880Z,14.50
2019-01-17T11:37:09.736Z,12.80
2019-01-17T11:39:50.019Z,11.90
2019-01-17T11:42:30.872Z,11.80
2019-01-17T11:45:11.352Z,13.00
2019-01-17T11:47:52.121Z,14.30
2019-01-17T11:50:32.561Z,14.80
2019-01-17T11:53:13.648Z,15.70
2019-01-17T11:55:53.924Z,15.40
2019-01-17T11:58:34.452Z,13.70
2019-01-17T12:01:14.823Z,12.50
2019-01-17T12:03:55.331Z,11.70
2019-01-17T12:06:35.687Z,11.10
2019-01-17T12:09:16.136Z,10.60
2019-01-17T12:11:56.511Z,10.20
2019-01-17T12:14:36.924Z,9.80
2019-01-17T12:17:17.707Z,9.50
2019-01-17T12:19:57.876Z,9.30
2019-01-17T12:22:38.427Z,9.20
2019-01-17T12:25:18.904Z,9.00
2019-01-17T12:27:59.557Z,9.00
2019-01-17T12:30:40.240Z,8.90
2019-01-17T12:33:21.332Z,8.90
2019-01-17T12:36:02.191Z,9.50
2019-01-17T12:38:43.155Z,11.30
2019-01-17T12:41:23.630Z,13.20
2019-01-17T12:44:04.507Z,14.40
2019-01-17T12:46:45.652Z,14.80
2019-01-17T12:49:26.748Z,15.00
2019-01-17T12:52:07.380Z,14.70
2019-01-17T12:54:47.912Z,14.70
2019-01-17T12:57:28.689Z,15.40
2019-01-17T13:00:09.492Z,15.40
2019-01-17T13:02:50.113Z,14.60
2019-01-17T13:05:30.976Z,13.00
2019-01-17T13:08:12.459Z,12.20
2019-01-17T13:10:53.345Z,11.60
2019-01-17T13:13:34.087Z,13.00
2019-01-17T13:16:15.286Z,13.80
2019-01-17T13:18:55.849Z,14.00
2019-01-17T13:21:36.813Z,14.60
2019-01-17T13:24:17.629Z,15.20
2019-01-17T13:27:00.920Z,15.60
2019-01-17T13:29:41.464Z,15.40
2019-01-17T13:32:22.219Z,15.70
2019-01-17T13:35:02.912Z,15.20
2019-01-17T13:37:43.662Z,14.40
2019-01-17T13:40:24.280Z,14.40
2019-01-17T13:43:05.216Z,14.90
2019-01-17T13:45:45.716Z,15.50
2019-01-17T13:48:26.584Z,14.20
2019-01-17T13:51:07.340Z,13.00
2019-01-17T13:53:47.780Z,13.00
2019-01-17T13:56:28.235Z,13.40
2019-01-17T13:59:09.141Z,13.70
2019-01-17T14:01:49.645Z,13.20
2019-01-17T14:04:30.115Z,12.40
2019-01-17T14:07:11.004Z,12.50
2019-01-17T14:09:51.451Z,12.10
2019-01-17T14:12:32.479Z,11.50
2019-01-17T14:15:12.904Z,10.80
2019-01-17T14:17:53.691Z,10.00
2019-01-17T14:20:34.724Z,9.50
2019-01-17T14:23:15.221Z,9.10
2019-01-17T14:25:56.004Z,8.80
2019-01-17T14:28:37.014Z,8.60
2019-01-17T14:31:17.400Z,8.60
2019-01-17T14:33:57.864Z,8.50
2019-01-17T14:36:38.748Z,8.50
2019-01-17T14:39:19.564Z,8.40
2019-01-17T14:42:00.092Z,8.40
2019-01-17T14:44:41.128Z,8.30
2019-01-17T14:47:21.956Z,8.30
2019-01-17T14:50:02.268Z,8.30
2019-01-17T14:52:42.985Z,8.20
2019-01-17T14:55:23.661Z,8.20
2019-01-17T14:58:04.279Z,8.10
2019-01-17T15:00:44.955Z,7.90
2019-01-17T15:03:25.663Z,7.80
2019-01-17T15:06:06.223Z,7.80
2019-01-17T15:08:46.791Z,7.90
2019-01-17T15:11:27.759Z,7.90
2019-01-17T15:14:08.439Z,7.90
2019-01-17T15:16:49.393Z,7.90
2019-01-17T15:19:30.116Z,7.90
2019-01-17T15:22:10.960Z,7.70
2019-01-17T15:24:51.795Z,7.10
2019-01-17T15:27:32.593Z,6.60
2019-01-17T15:30:13.667Z,6.40
2019-01-17T15:32:54.102Z,6.20
2019-01-17T15:35:35.031Z,6.10
2019-01-17T15:38:15.861Z,6.00
2019-01-17T15:40:56.315Z,5.90
2019-01-17T15:43:37.228Z,5.80
2019-01-17T15:46:17.927Z,5.70
2019-01-17T15:48:58.383Z,5.60
2019-01-17T15:51:39.226Z,5.50
2019-01-17T15:54:20.160Z,5.40
2019-01-17T15:57:00.980Z,5.30
2019-01-17T15:59:41.648Z,5.30
2019-01-17T16:02:22.087Z,5.30
2019-01-17T16:05:02.889Z,5.30
2019-01-17T16:07:31.283Z,5.40
2019-01-17T16:10:18.998Z,5.30
2019-01-17T16:13:06.731Z,5.30
2019-01-17T16:15:54.976Z,5.30
2019-01-17T16:18:42.739Z,5.20
2019-01-17T16:21:30.479Z,5.20
2019-01-17T16:27:11.449Z,5.20
2019-01-17T16:29:59.391Z,5.20
2019-01-17T16:32:47.396Z,5.20
2019-01-17T16:35:35.115Z,5.20
2019-01-17T16:38:23.099Z,5.20
2019-01-17T16:41:11.047Z,5.00
2019-01-17T16:43:58.773Z,5.00
2019-01-17T16:46:46.749Z,4.90
2019-01-17T16:49:34.808Z,4.90
2019-01-17T16:52:22.539Z,4.80
2019-01-17T16:55:10.520Z,4.80
2019-01-17T16:57:58.239Z,4.80
2019-01-17T17:00:46.312Z,4.80
2019-01-17T17:03:34.043Z,4.80
2019-01-17T17:06:22.052Z,4.90
2019-01-17T17:09:09.775Z,5.00
2019-01-17T17:11:57.812Z,5.00
2019-01-17T17:14:45.535Z,5.10
2019-01-17T17:17:33.507Z,5.00
2019-01-17T17:20:41.959Z,4.80
2019-01-17T17:23:29.683Z,4.80
2019-01-17T17:26:17.396Z,4.70
2019-01-17T17:29:05.387Z,4.70
2019-01-17T17:31:53.099Z,4.60
2019-01-17T17:34:41.092Z,4.60
2019-01-17T17:37:29.040Z,4.60
2019-01-17T17:40:10.368Z,4.50
2019-01-17T17:42:51.242Z,4.10
2019-01-17T17:45:31.923Z,4.40
2019-01-17T17:48:12.541Z,4.40
2019-01-17T17:50:53.187Z,4.50
2019-01-17T17:53:33.669Z,4.50
2019-01-17T17:56:14.152Z,4.50
2019-01-17T17:58:54.723Z,4.50
2019-01-17T18:01:36.095Z,4.50
2019-01-17T18:04:16.295Z,4.50
2019-01-17T18:06:57.511Z,4.60
2019-01-17T18:09:38.055Z,4.60
2019-01-17T18:12:19.137Z,4.50
2019-01-17T18:14:59.943Z,4.50
2019-01-17T18:17:40.347Z,4.50
2019-01-17T18:20:21.060Z,4.50
2019-01-17T18:23:01.711Z,4.50
2019-01-17T18:25:42.752Z,4.40
2019-01-17T18:28:23.423Z,4.40
2019-01-17T18:31:04.022Z,4.40
2019-01-17T18:33:44.407Z,4.30
2019-01-17T18:36:24.743Z,4.30
2019-01-17T18:39:07.232Z,4.30
2019-01-17T18:41:47.967Z,4.20
2019-01-17T18:44:28.667Z,4.20
2019-01-17T18:47:09.280Z,4.20
2019-01-17T18:49:50.108Z,4.10
2019-01-17T18:52:30.452Z,4.10
2019-01-17T18:55:11.655Z,4.10
2019-01-17T18:57:52.281Z,4.10
2019-01-17T19:00:32.745Z,4.10
2019-01-17T19:03:13.607Z,4.10
2019-01-17T19:05:54.180Z,3.90
2019-01-17T19:08:34.829Z,3.90
2019-01-17T19:11:15.532Z,3.90
2019-01-17T19:13:56.151Z,3.80
2019-01-17T19:16:36.853Z,3.70
2019-01-17T19:19:17.931Z,3.60
2019-01-17T19:21:58.588Z,3.60
2019-01-17T19:24:39.280Z,3.50
2019-01-17T19:27:20.140Z,3.50
2019-01-17T19:30:00.971Z,3.40
2019-01-17T19:32:41.765Z,3.40
2019-01-17T19:35:22.432Z,3.30
2019-01-17T19:38:03.187Z,3.30
2019-01-17T19:40:43.943Z,3.20
2019-01-17T19:43:24.466Z,3.20
2019-01-17T19:46:05.169Z,3.20
2019-01-17T19:48:45.684Z,3.10
2019-01-17T19:51:26.161Z,3.10
2019-01-17T19:54:07.124Z,3.10
2019-01-17T19:56:47.780Z,3.10
2019-01-17T19:59:28.603Z,3.20
2019-01-17T20:02:09.865Z,3.20
2019-01-17T20:04:50.432Z,3.10
2019-01-17T20:07:31.170Z,3.10
2019-01-17T20:10:12.008Z,3.10
2019-01-17T20:12:52.888Z,3.10
2019-01-17T20:15:33.576Z,3.00
2019-01-17T20:18:13.982Z,3.00
2019-01-17T20:20:54.576Z,2.90
2019-01-17T20:23:35.424Z,2.90
2019-01-17T20:26:16.070Z,2.80
2019-01-17T20:28:56.700Z,2.80
2019-01-17T20:31:37.871Z,2.70
2019-01-17T20:34:18.527Z,2.70
2019-01-17T20:36:59.095Z,2.70
2019-01-17T20:39:40.112Z,2.70
2019-01-17T20:42:20.609Z,2.70
2019-01-17T20:45:01.499Z,2.60
2019-01-17T20:47:41.688Z,2.50
2019-01-17T20:50:23.051Z,2.50
2019-01-17T20:53:03.784Z,2.40
2019-01-17T20:55:44.287Z,2.30
2019-01-17T20:58:25.188Z,2.30
2019-01-17T21:03:50.142Z,2.20
2019-01-17T21:06:30.864Z,2.20
2019-01-17T21:09:11.785Z,2.10
2019-01-17T21:11:52.179Z,2.10
2019-01-17T21:14:33.411Z,2.00
2019-01-17T21:17:14.116Z,2.00
2019-01-17T21:19:54.847Z,2.00
2019-01-17T21:22:35.863Z,2.00
2019-01-17T21:25:16.055Z,2.00
2019-01-17T21:27:56.735Z,2.00
2019-01-17T21:30:37.212Z,2.00
2019-01-17T21:33:18.028Z,2.00
2019-01-17T21:35:58.295Z,2.00
2019-01-17T21:38:39.279Z,2.20
2019-01-17T21:41:19.671Z,2.30
2019-01-17T21:44:00.801Z,2.40
2019-01-17T21:46:41.852Z,2.50
2019-01-17T21:49:22.496Z,2.60
2019-01-17T21:52:03.085Z,2.70
2019-01-17T21:54:43.896Z,2.40
2019-01-17T21:57:24.488Z,2.70
2019-01-17T22:00:05.312Z,2.80
2019-01-17T22:02:45.631Z,2.80
2019-01-17T22:05:26.071Z,2.80
2019-01-17T22:08:06.703Z,2.80
2019-01-17T22:10:47.205Z,2.80
2019-01-17T22:13:28.188Z,2.80
2019-01-17T22:16:09.251Z,2.90
2019-01-17T22:18:50.099Z,2.90
2019-01-17T22:21:30.559Z,2.90
2019-01-17T22:24:11.041Z,2.90
2019-01-17T22:26:51.933Z,3.00
2019-01-17T22:29:32.567Z,3.00
2019-01-17T22:32:13.347Z,3.00
2019-01-17T22:34:53.943Z,3.00
2019-01-17T22:37:35.004Z,3.00
2019-01-17T22:40:15.560Z,3.10
2019-01-17T22:42:56.020Z,3.10
2019-01-17T22:45:36.794Z,3.10
2019-01-17T22:48:17.260Z,3.20
2019-01-17T22:50:57.888Z,3.20
2019-01-17T22:53:38.596Z,3.20
2019-01-17T22:56:19.308Z,3.20
2019-01-17T22:59:00.336Z,3.30
2019-01-17T23:01:41.155Z,3.30
2019-01-17T23:04:21.957Z,3.40
2019-01-17T23:07:02.852Z,3.40
2019-01-17T23:09:43.488Z,3.50
2019-01-17T23:12:23.665Z,3.50
2019-01-17T23:15:04.428Z,3.50
2019-01-17T23:17:44.903Z,3.60
2019-01-17T23:20:25.963Z,3.60
2019-01-17T23:23:06.684Z,3.70
2019-01-17T23:25:47.108Z,3.70
2019-01-17T23:28:28.080Z,3.70
2019-01-17T23:31:08.756Z,3.70
2019-01-17T23:33:49.443Z,3.60
2019-01-17T23:36:30.425Z,3.60
2019-01-17T23:39:11.876Z,3.70
2019-01-17T23:41:52.539Z,3.70
2019-01-17T23:44:33.439Z,3.80
2019-01-17T23:47:14.141Z,3.90
2019-01-17T23:49:54.815Z,3.90
2019-01-17T23:52:35.360Z,3.90
2019-01-17T23:55:15.707Z,4.00
2019-01-17T23:57:56.012Z,4.00
